AirNav   Pilot Hours Calculator
 
 651 users online  

2O8 Hinton Municipal Airport
Hinton, Oklahoma, USA

GOING TO HINTON?


FAA INFORMATION EFFECTIVE 31 DECEMBER 2020

Location

FAA Identifier: 2O8
Lat/Long: 35-30-26.0000N 098-20-33.2000W
35-30.433333N 098-20.553333W
35.5072222,-98.3425556
(estimated)
Elevation: 1587 ft. / 483.7 m (surveyed)
Variation: 07E (1995)
From city: 2 miles NE of HINTON, OK
Time zone: UTC -6 (UTC -5 during Daylight Saving Time)
Zip code: 73047

Airport Operations

Airport use: Open to the public
Activation date: 05/1998
Control tower: no
ARTCC: FORT WORTH CENTER
FSS: MC ALESTER FLIGHT SERVICE STATION
NOTAMs facility: MLC (NOTAM-D service available)
Attendance: MON-SAT 0900-1700, ALL SUN 1300-1700
Wind indicator: lighted
Segmented circle: yes
Lights: MIRLS RY 17/35 PRESET LOW INTENSITY KEY TO INCREASE - CTAF.
Beacon: white-green (lighted land airport)
Operates sunset to sunrise.

Airport Communications

CTAF/UNICOM: 123.05
WX AWOS-3 at OJA (16 nm W): 118.575 (580-772-7020)
WX AWOS-3 at RQO (17 nm E): 118.475 (405-262-0087)
  • APCH/DEP SVC PRVDD BY FORT WORTH ARTCC ON FREQS 128.4/269.37 (CLINTON-SHERMAN RCAG).

Nearby radio navigation aids

VOR radial/distance  VOR name  Freq  Var
IFIr214/24.3KINGFISHER VORTAC114.7009E
PWAr259/34.0WILEY POST VOR/DME113.4008E
IRWr277/36.9WILL ROGERS VORTAC114.1007E

Airport Services

Fuel available: 100LL
FUEL AVBL 24 HRS WITH AUTOMATED CREDIT CARD SYSTEM.
Parking: tiedowns
Airframe service: NONE
Powerplant service: NONE
Bottled oxygen: NONE
Bulk oxygen: NONE

Runway Information

Runway 17/35

Dimensions: 4001 x 60 ft. / 1220 x 18 m
Surface: asphalt, in good condition
Runway edge lights: medium intensity
RUNWAY 17  RUNWAY 35
Latitude: 35-30.762542N35-30.103118N
Longitude: 098-20.557277W098-20.550350W
Elevation: 1577.4 ft.1586.9 ft.
Traffic pattern: leftleft
Runway heading: 173 magnetic, 180 true353 magnetic, 360 true
Markings: nonprecision, in good conditionnonprecision, in good condition
Visual slope indicator: 2-light PAPI on left (3.00 degrees glide path)
PAPI OTS INDEFLY.
2-light PAPI on left (3.00 degrees glide path)
PAPI OTS INDEFLY.
Touchdown point: yes, no lightsyes, no lights

Airport Ownership and Management from official FAA records

Ownership: Publicly-owned
Owner: TOWN OF HINTON
PO BOX 159
HINTON, OK 73047
Phone 405-542-3253
Manager: DIEDRE WELLMAN
PO BOX 67, 611 E AIRPORT RD.
HINTON, OK 73047
Phone 405-542-3993
FBO/AMGR.

Airport Operational Statistics

Aircraft based on the field: 20
Single engine airplanes: 10
Multi engine airplanes: 1
Gliders airplanes: 9
    
Aircraft operations: avg 67/week *
55% transient general aviation
45% local general aviation
* for 12-month period ending 05 March 2018

Additional Remarks

GLIDER ACTIVITY ON & INVOF ARPT.
FOR CD CTC FORT WORTH ARTCC AT 817-858-7584.

Instrument Procedures

NOTE: All procedures below are presented as PDF files. If you need a reader for these files, you should download the free Adobe Reader.

NOT FOR NAVIGATION. Please procure official charts for flight.
FAA instrument procedures published for use from 31 December 2020 at 0901Z to 28 January 2021 at 0900Z.

 
IAPs - Instrument Approach Procedures
RNAV (GPS) RWY 17   download (197KB)
RNAV (GPS) RWY 35   download (203KB)
NOTE: Special Take-Off Minimums/Departure Procedures apply   download (131KB)

Other nearby airports with instrument procedures:

KOJA - Thomas P Stafford Airport (16 nm W)
KRQO - El Reno Regional Airport (17 nm E)
KJWG - Watonga Regional Airport (22 nm N)
1O4 - Thomas Municipal Airport (23 nm NW)
KRCE - Clarence E Page Municipal Airport (25 nm E)
 
Loc | Ops | Rwys | IFR | FBO | Links
Com | Nav | Svcs | Stats | Notes
Area around 2O8 (Hinton Municipal Airport)
 
Road maps at: MapQuest Bing Google
 
Aerial photo
WARNING: Photo may not be current or correct
Aerial photo of 2O8 (Hinton Municipal Airport)
Photo by Jamie Szendrey

Do you have a better or more recent aerial photo of Hinton Municipal Airport that you would like to share? If so, please send us your photo.

 
Sectional chart

 
Airport distance calculator
Flying to Hinton Municipal Airport? Find the distance to fly.

From to 2O8

Sunrise and sunset
Times for 24-Jan-2021
 Local
(UTC-6)
 Zulu
(UTC)
Morning civil twilight07:1213:12
Sunrise07:3913:39
Sunset17:5223:52
Evening civil twilight18:1900:19

Current date and time
Zulu (UTC)  25-Jan-2021 05:58:57
Local (UTC-6)  24-Jan-2021 23:58:57
 
METAR
KOJA 
16nm W 
250535Z AUTO 02014G18KT 2 1/2SM -TSRA BR OVC003 04/03 A2969 RMK AO2 LTG DSNT ALQDS T00370032
KRQO 
17nm E 
250535Z AUTO 33010KT 5SM -TSRA BR OVC003 05/05 A2970 RMK AO2 LTG DSNT ALQDS P0009 T00520051
KJWG 
22nm N 
250535Z AUTO 36019KT 4SM -TSRA BR BKN002 BKN009 OVC039 03/03 A2972 RMK AO2 LTG DSNT ALQDS P0018 T00300027
KRCE 
25nm E 
250555Z AUTO 34008KT 2SM VCTS RA OVC002 06/06 A2968 RMK AO2 LTG DSNT ALQDS P0008
KCLK 
29nm W 
250535Z AUTO 34015G19KT 1SM -VCTSRA OVC005 03/03 A2975 RMK AO2 LTG DSNT ALQS P0021
KCHK 
31nm SE 
250535Z AUTO 00000KT 3SM -RA BR OVC003 06/06 A2964 RMK AO2 LTG DSNT ALQDS T00650063
KHSD 
32nm E 
250535Z AUTO 05005KT 5SM BR OVC002 06/06 A2968 RMK A01
TAF
KOKC 
37nm E 
241749Z 2418/2518 35011KT 6SM -DZ BR OVC010 FM242300 03006KT 3SM SHRA BR OVC005 FM250200 06007KT 2SM SHRADZ BR OVC004 PROB30 2503/2506 -TSRA OVC004CB FM250600 04011KT 4SM -RA OVC004 TEMPO 2507/2510 1SM TSRA OVC004CB FM251100 23009KT 4SM BR OVC005
KCSM 
43nm W 
241749Z 2418/2518 35016KT P6SM FEW008 OVC026 FM242200 02012KT 5SM SHRA BR OVC009 FM250300 03010KT 3SM SHRADZ BR OVC007 TEMPO 2506/2509 1SM TSRA OVC005CB FM251600 23012G18KT P6SM SCT025
NOTAMs
Click for the latest NOTAMs
NOTAMs are issued by the DoD/FAA and will open in a separate window not controlled by AirNav.

 

 
 

FBO, Fuel Providers, and Aircraft Ground Support

  
 Business Name 
 
 Contact 
 
 Services / Description 
 
Fuel Prices
 
Comments
  
Hinton Airport 405-542-3993 Airport management, Aviation fuel, Aircraft parking (ramp or tiedown), Courtesy transportation, Public telephone, Internet access, Restrooms, Showers

More info about Hinton Airport
Phillips 66
100LL
SS $3.15 
 Updated 14-Jan-2021
 
   5 read write
SS=Self service
Update Fuel Prices
 

Would you like to see your business listed on this page?

 If your business provides an interesting product or service to pilots, flight crews, aircraft, or users of the Hinton Municipal Airport, you should consider listing it here.  To start the listing process, click on the button below
 
Add a business
 

Other Pages about Hinton Municipal Airport

Mid Air Collision Avoidance Chart
 
Update a link
 
Copyright © AirNav, LLC. All rights reserved. Privacy Policy  Contact